Time;durP1;ratioP1;P1;durP2;ratioP2;P2;SDS_P1;SDS_P2;PMS_P1;PMS_P2;Temp;Humidity;BMP_temperature;BMP_pressure;BME280_temperature;BME280_humidity;BME280_pressure;Samples;Min_cycle;Max_cycle;Signal;HPM_P1;HPM_P2
2023/06/11 00:00:32;;;;;;;76.43;63.47;;;;;;;;;;5077967;28;20452;-79
2023/06/11 00:02:59;;;;;;;34.00;31.53;;;;;;;;;;5078178;28;20473;-80
2023/06/11 00:05:27;;;;;;;29.83;27.83;;;;;;;;;;5078316;28;20453;-81
2023/06/11 00:07:55;;;;;;;59.40;54.17;;;;;;;;;;5079114;28;20456;-81
2023/06/11 00:10:24;;;;;;;28.60;26.60;;;;;;;;;;5076690;28;20503;-80
2023/06/11 00:12:51;;;;;;;30.43;28.43;;;;;;;;;;5078356;28;20963;-80
2023/06/11 00:15:18;;;;;;;29.53;27.63;;;;;;;;;;5080746;28;20452;-81
2023/06/11 00:17:45;;;;;;;29.90;28.13;;;;;;;;;;5079205;28;20508;-81
2023/06/11 00:20:13;;;;;;;30.40;28.33;;;;;;;;;;5076440;28;20495;-80
2023/06/11 00:22:40;;;;;;;29.87;28.07;;;;;;;;;;5076774;28;20460;-81
2023/06/11 00:25:08;;;;;;;30.97;29.07;;;;;;;;;;5076959;28;20437;-81
2023/06/11 00:27:37;;;;;;;30.80;29.00;;;;;;;;;;5080341;28;20442;-80
2023/06/11 00:30:04;;;;;;;30.40;28.53;;;;;;;;;;5082793;28;20956;-81
2023/06/11 00:32:32;;;;;;;28.43;26.83;;;;;;;;;;5083004;28;20933;-81
2023/06/11 00:35:01;;;;;;;29.97;28.07;;;;;;;;;;5081339;28;20477;-81
2023/06/11 00:37:30;;;;;;;28.90;27.10;;;;;;;;;;5082018;28;20504;-80
2023/06/11 00:39:57;;;;;;;29.70;27.53;;;;;;;;;;5085866;28;20577;-80
2023/06/11 00:42:24;;;;;;;30.63;28.60;;;;;;;;;;5083822;28;20470;-80
2023/06/11 00:44:54;;;;;;;30.60;28.70;;;;;;;;;;5084697;28;20914;-80
2023/06/11 00:47:22;;;;;;;29.30;27.57;;;;;;;;;;5084696;28;20419;-81
2023/06/11 00:49:49;;;;;;;30.03;28.33;;;;;;;;;;5084809;28;20447;-80
2023/06/11 00:52:18;;;;;;;30.40;28.60;;;;;;;;;;5083954;28;20420;-82
2023/06/11 00:54:45;;;;;;;29.50;27.60;;;;;;;;;;5085003;28;20906;-79
2023/06/11 00:57:12;;;;;;;29.27;27.30;;;;;;;;;;5085001;28;20424;-80
2023/06/11 00:59:41;;;;;;;29.83;27.80;;;;;;;;;;5087926;28;20444;-81
2023/06/11 01:02:15;;;;;;;29.50;27.50;;;;;;;;;;5086984;28;20508;-81
2023/06/11 01:04:43;;;;;;;30.47;28.27;;;;;;;;;;5087396;28;20524;-80
2023/06/11 01:07:14;;;;;;;29.93;27.70;;;;;;;;;;5083337;28;20420;-80
2023/06/11 01:09:42;;;;;;;28.50;26.80;;;;;;;;;;5084385;28;20533;-80
2023/06/11 01:12:10;;;;;;;29.23;27.43;;;;;;;;;;5086119;28;20438;-81
2023/06/11 01:14:38;;;;;;;30.23;28.43;;;;;;;;;;5075932;28;20534;-80
2023/06/11 01:17:07;;;;;;;29.47;27.57;;;;;;;;;;5075072;28;20446;-81
2023/06/11 01:19:50;;;;;;;30.10;28.30;;;;;;;;;;5086280;28;20472;-80
2023/06/11 01:22:21;;;;;;;30.10;27.77;;;;;;;;;;5078054;28;20464;-80
2023/06/11 01:24:59;;;;;;;30.43;28.53;;;;;;;;;;5075335;28;20467;-80
2023/06/11 01:27:35;;;;;;;29.63;27.83;;;;;;;;;;5075240;28;20762;-81
2023/06/11 01:30:06;;;;;;;29.83;27.73;;;;;;;;;;5076901;28;20481;-81
2023/06/11 01:32:33;;;;;;;29.40;27.60;;;;;;;;;;5080225;28;20930;-80
2023/06/11 01:35:01;;;;;;;29.93;28.13;;;;;;;;;;5081336;28;20460;-79
2023/06/11 01:37:29;;;;;;;31.17;28.97;;;;;;;;;;5076530;28;20952;-81
2023/06/11 01:39:56;;;;;;;29.03;27.33;;;;;;;;;;5076422;28;20455;-81
2023/06/11 01:42:23;;;;;;;30.70;28.90;;;;;;;;;;5075798;28;20454;-81
2023/06/11 01:44:50;;;;;;;29.90;28.10;;;;;;;;;;5076170;28;20496;-81
2023/06/11 01:47:20;;;;;;;30.60;28.70;;;;;;;;;;5075460;28;20924;-81
2023/06/11 01:49:47;;;;;;;30.63;28.53;;;;;;;;;;5075504;28;20445;-81
2023/06/11 01:52:16;;;;;;;29.70;27.80;;;;;;;;;;5075803;28;20503;-81
2023/06/11 01:54:43;;;;;;;30.27;28.50;;;;;;;;;;5075623;28;20466;-83
2023/06/11 01:57:10;;;;;;;30.17;28.37;;;;;;;;;;5075140;28;20413;-82
2023/06/11 01:59:37;;;;;;;30.40;28.47;;;;;;;;;;5075748;28;20478;-80
2023/06/11 02:02:04;;;;;;;30.40;28.50;;;;;;;;;;5074717;28;20469;-82
2023/06/11 02:04:32;;;;;;;31.47;29.47;;;;;;;;;;5074997;28;20446;-82
2023/06/11 02:07:00;;;;;;;31.23;29.13;;;;;;;;;;5074298;28;20445;-81
2023/06/11 02:09:27;;;;;;;31.07;29.17;;;;;;;;;;5077508;28;20470;-81
2023/06/11 02:11:54;;;;;;;29.30;27.40;;;;;;;;;;5076492;28;21014;-81
2023/06/11 02:14:21;;;;;;;30.10;28.30;;;;;;;;;;5076893;28;20464;-80
2023/06/11 02:16:48;;;;;;;30.83;28.87;;;;;;;;;;5076863;28;20449;-81
2023/06/11 02:19:15;;;;;;;31.10;29.00;;;;;;;;;;5076970;28;20420;-81
2023/06/11 02:21:46;;;;;;;32.30;30.07;;;;;;;;;;5077102;28;20521;-82
2023/06/11 02:24:13;;;;;;;30.37;28.37;;;;;;;;;;5075504;28;20450;-83
2023/06/11 02:26:39;;;;;;;29.83;28.03;;;;;;;;;;5076041;28;20430;-83
2023/06/11 02:29:06;;;;;;;29.33;27.53;;;;;;;;;;5076372;28;20863;-82
2023/06/11 02:31:33;;;;;;;30.70;28.50;;;;;;;;;;5076624;28;20520;-83
2023/06/11 02:34:00;;;;;;;31.70;29.70;;;;;;;;;;5075376;28;20454;-82
2023/06/11 02:36:27;;;;;;;30.37;28.47;;;;;;;;;;5075629;28;20441;-83
2023/06/11 02:38:56;;;;;;;30.70;28.50;;;;;;;;;;5075962;28;20455;-80
2023/06/11 02:41:23;;;;;;;32.37;30.03;;;;;;;;;;5075972;28;20440;-81
2023/06/11 02:43:50;;;;;;;31.40;29.40;;;;;;;;;;5075345;28;20448;-80
2023/06/11 02:46:17;;;;;;;31.30;29.23;;;;;;;;;;5075050;28;20416;-81
2023/06/11 02:48:44;;;;;;;30.73;28.73;;;;;;;;;;5075366;28;20450;-82
2023/06/11 02:51:11;;;;;;;32.53;30.50;;;;;;;;;;5075296;28;20436;-81
2023/06/11 02:53:38;;;;;;;32.07;29.63;;;;;;;;;;5075569;28;20430;-81
2023/06/11 02:56:06;;;;;;;29.90;27.97;;;;;;;;;;5074306;28;20822;-83
2023/06/11 02:58:33;;;;;;;30.03;28.13;;;;;;;;;;5075195;28;20449;-81
2023/06/11 03:01:00;;;;;;;31.00;29.10;;;;;;;;;;5075161;28;20449;-81
2023/06/11 03:03:27;;;;;;;31.70;29.33;;;;;;;;;;5088597;28;20453;-79
2023/06/11 03:05:55;;;;;;;31.10;29.10;;;;;;;;;;5087796;28;20463;-79
2023/06/11 03:08:22;;;;;;;31.07;29.07;;;;;;;;;;5090172;28;20430;-79
2023/06/11 03:10:49;;;;;;;31.27;29.37;;;;;;;;;;5075002;28;20450;-79
2023/06/11 03:13:17;;;;;;;30.60;28.60;;;;;;;;;;5074278;28;20486;-79
2023/06/11 03:15:44;;;;;;;31.47;29.57;;;;;;;;;;5073361;28;20452;-79
2023/06/11 03:18:12;;;;;;;31.83;29.80;;;;;;;;;;5074531;28;20479;-79
2023/06/11 03:20:38;;;;;;;32.13;30.03;;;;;;;;;;5073631;28;20517;-79
2023/06/11 03:23:06;;;;;;;32.47;30.47;;;;;;;;;;5074601;28;20412;-79
2023/06/11 03:25:33;;;;;;;30.47;28.63;;;;;;;;;;5073689;28;20859;-79
2023/06/11 03:28:02;;;;;;;31.77;29.60;;;;;;;;;;5074679;28;20433;-78
2023/06/11 03:30:30;;;;;;;33.20;30.90;;;;;;;;;;5075175;28;20477;-79
2023/06/11 03:32:57;;;;;;;31.90;29.80;;;;;;;;;;5077687;28;20786;-78
2023/06/11 03:35:25;;;;;;;31.20;29.20;;;;;;;;;;5077410;28;20477;-79
2023/06/11 03:37:51;;;;;;;32.03;29.93;;;;;;;;;;5077519;28;20449;-78
2023/06/11 03:40:19;;;;;;;32.20;30.10;;;;;;;;;;5077547;28;20948;-78
2023/06/11 03:42:46;;;;;;;34.10;31.90;;;;;;;;;;5077216;28;20924;-78
2023/06/11 03:45:13;;;;;;;30.87;29.07;;;;;;;;;;5077398;28;20993;-79
2023/06/11 03:47:41;;;;;;;32.50;30.27;;;;;;;;;;5076027;28;20775;-78
2023/06/11 03:50:08;;;;;;;30.60;28.80;;;;;;;;;;5077316;28;20519;-78
2023/06/11 03:52:35;;;;;;;31.90;29.90;;;;;;;;;;5077195;28;20490;-78
2023/06/11 03:55:02;;;;;;;31.23;29.33;;;;;;;;;;5077354;28;20460;-78
2023/06/11 03:57:29;;;;;;;31.87;29.57;;;;;;;;;;5076393;28;20408;-78
2023/06/11 03:59:57;;;;;;;31.97;29.97;;;;;;;;;;5076439;28;20527;-78
2023/06/11 04:02:24;;;;;;;32.80;30.60;;;;;;;;;;5076932;28;20437;-78
2023/06/11 04:04:52;;;;;;;30.37;28.40;;;;;;;;;;5076885;28;20985;-78
2023/06/11 04:07:19;;;;;;;32.80;30.50;;;;;;;;;;5076716;28;20416;-79
2023/06/11 04:09:46;;;;;;;32.40;30.27;;;;;;;;;;5076856;28;20447;-79
2023/06/11 04:12:13;;;;;;;30.27;28.47;;;;;;;;;;5076692;28;20502;-78
2023/06/11 04:14:40;;;;;;;30.40;28.50;;;;;;;;;;5076776;28;20428;-78
2023/06/11 04:17:07;;;;;;;30.83;28.87;;;;;;;;;;5076096;28;20462;-78
2023/06/11 04:19:34;;;;;;;31.67;29.77;;;;;;;;;;5076526;28;20432;-78
2023/06/11 04:22:02;;;;;;;30.83;28.93;;;;;;;;;;5076196;28;20443;-78
2023/06/11 04:24:29;;;;;;;29.93;28.00;;;;;;;;;;5076600;28;20474;-78
2023/06/11 04:26:58;;;;;;;29.83;27.97;;;;;;;;;;5076379;28;20420;-78
2023/06/11 04:29:29;;;;;;;31.27;28.90;;;;;;;;;;5076617;28;20994;-78
2023/06/11 04:31:56;;;;;;;30.57;28.67;;;;;;;;;;5076022;28;20448;-79
2023/06/11 04:34:29;;;;;;;30.60;28.60;;;;;;;;;;5076573;28;20454;-78
2023/06/11 04:36:56;;;;;;;30.53;28.53;;;;;;;;;;5076198;28;20823;-78
2023/06/11 04:39:24;;;;;;;30.13;28.23;;;;;;;;;;5076238;28;20465;-79
2023/06/11 04:41:52;;;;;;;31.60;29.70;;;;;;;;;;5076165;28;20445;-78
2023/06/11 04:44:20;;;;;;;31.10;29.10;;;;;;;;;;5075803;28;20435;-78
2023/06/11 04:46:47;;;;;;;31.00;29.00;;;;;;;;;;5075699;28;20467;-78
2023/06/11 04:49:20;;;;;;;31.50;29.60;;;;;;;;;;5076009;28;20409;-77
2023/06/11 04:51:48;;;;;;;30.87;28.87;;;;;;;;;;5075679;28;20560;-78
2023/06/11 04:54:17;;;;;;;30.70;28.80;;;;;;;;;;5076090;28;20486;-78
2023/06/11 04:56:45;;;;;;;31.03;29.10;;;;;;;;;;5075054;28;20474;-78
2023/06/11 04:59:12;;;;;;;29.80;27.90;;;;;;;;;;5075806;28;20997;-77
2023/06/11 05:01:46;;;;;;;31.20;29.30;;;;;;;;;;5074334;28;20486;-79
2023/06/11 05:04:14;;;;;;;32.30;30.10;;;;;;;;;;5075566;28;20464;-78
2023/06/11 05:06:44;;;;;;;30.70;28.73;;;;;;;;;;5075075;28;20453;-78
2023/06/11 05:09:12;;;;;;;30.43;28.50;;;;;;;;;;5075801;28;20466;-78
2023/06/11 05:11:39;;;;;;;30.40;28.40;;;;;;;;;;5076825;28;20458;-79
2023/06/11 05:14:07;;;;;;;30.30;28.40;;;;;;;;;;5076321;28;20450;-77
2023/06/11 05:16:34;;;;;;;30.40;28.37;;;;;;;;;;5074559;28;20986;-78
2023/06/11 05:19:02;;;;;;;32.37;30.23;;;;;;;;;;5075600;28;20400;-78
2023/06/11 05:21:29;;;;;;;30.00;27.77;;;;;;;;;;5075392;28;20476;-78
2023/06/11 05:24:06;;;;;;;30.90;28.90;;;;;;;;;;5075589;28;20454;-79
2023/06/11 05:26:33;;;;;;;30.80;28.80;;;;;;;;;;5075459;28;20444;-78
2023/06/11 05:29:00;;;;;;;30.80;28.70;;;;;;;;;;5075637;28;20449;-78
2023/06/11 05:31:30;;;;;;;29.07;27.27;;;;;;;;;;5074889;28;20839;-78
2023/06/11 05:33:57;;;;;;;28.60;26.73;;;;;;;;;;5075600;28;20500;-79
2023/06/11 05:36:25;;;;;;;30.53;28.60;;;;;;;;;;5074553;28;20993;-78
2023/06/11 05:38:52;;;;;;;30.80;28.73;;;;;;;;;;5075580;28;20432;-78
2023/06/11 05:41:19;;;;;;;30.30;28.20;;;;;;;;;;5075475;28;20830;-79
2023/06/11 05:43:47;;;;;;;30.07;28.07;;;;;;;;;;5075663;28;20421;-78
2023/06/11 05:46:14;;;;;;;30.27;28.37;;;;;;;;;;5075154;28;20427;-78
2023/06/11 05:48:43;;;;;;;29.97;27.77;;;;;;;;;;5076065;28;20404;-79
2023/06/11 05:51:10;;;;;;;30.73;28.73;;;;;;;;;;5075029;28;20545;-78
2023/06/11 05:53:37;;;;;;;31.10;28.93;;;;;;;;;;5075545;28;21075;-79
2023/06/11 05:56:05;;;;;;;30.73;28.63;;;;;;;;;;5075915;28;20456;-78
2023/06/11 05:58:32;;;;;;;31.03;29.13;;;;;;;;;;5081965;28;21252;-77
2023/06/11 06:01:02;;;;;;;30.10;28.10;;;;;;;;;;5077536;28;20816;-78
2023/06/11 06:03:29;;;;;;;30.03;28.13;;;;;;;;;;5075820;28;20458;-77
2023/06/11 06:05:58;;;;;;;29.30;27.40;;;;;;;;;;5076451;28;20823;-77
2023/06/11 06:08:25;;;;;;;30.70;28.40;;;;;;;;;;5077636;28;20489;-77
2023/06/11 06:10:52;;;;;;;29.13;27.33;;;;;;;;;;5077988;28;20452;-78
2023/06/11 06:13:19;;;;;;;30.20;28.30;;;;;;;;;;5075931;28;20822;-79
2023/06/11 06:15:46;;;;;;;31.60;29.40;;;;;;;;;;5075631;28;20477;-79
2023/06/11 06:18:14;;;;;;;31.97;29.77;;;;;;;;;;5077427;28;20502;-79
2023/06/11 06:20:41;;;;;;;30.20;28.10;;;;;;;;;;5076704;28;20973;-79
2023/06/11 06:23:11;;;;;;;31.43;29.43;;;;;;;;;;5075191;28;20474;-78
2023/06/11 06:25:38;;;;;;;30.27;28.27;;;;;;;;;;5077835;28;20444;-79
2023/06/11 06:28:06;;;;;;;30.20;28.20;;;;;;;;;;5077616;28;20770;-77
2023/06/11 06:30:33;;;;;;;29.10;27.17;;;;;;;;;;5077339;28;20471;-79
2023/06/11 06:33:00;;;;;;;28.90;27.10;;;;;;;;;;5076607;28;20447;-78
2023/06/11 06:35:27;;;;;;;28.53;26.73;;;;;;;;;;5076674;28;20579;-78
2023/06/11 06:37:54;;;;;;;30.13;28.07;;;;;;;;;;5075986;28;20572;-79
2023/06/11 06:40:23;;;;;;;29.13;27.10;;;;;;;;;;5076257;28;20475;-78
2023/06/11 06:42:50;;;;;;;30.43;28.30;;;;;;;;;;5075649;28;20425;-78
2023/06/11 06:45:17;;;;;;;28.63;26.73;;;;;;;;;;5075648;28;20863;-78
2023/06/11 06:47:44;;;;;;;29.13;27.40;;;;;;;;;;5074968;28;20416;-78
2023/06/11 06:50:11;;;;;;;29.07;27.27;;;;;;;;;;5075068;28;20432;-78
2023/06/11 06:52:38;;;;;;;28.67;26.67;;;;;;;;;;5075093;28;20444;-78
2023/06/11 06:55:06;;;;;;;30.10;28.20;;;;;;;;;;5075660;28;20433;-80
2023/06/11 06:57:35;;;;;;;30.50;28.50;;;;;;;;;;5073936;28;20452;-78
2023/06/11 07:00:02;;;;;;;30.57;28.43;;;;;;;;;;5074810;28;20491;-79
2023/06/11 07:02:29;;;;;;;28.23;26.33;;;;;;;;;;5074285;28;20451;-80
2023/06/11 07:04:56;;;;;;;30.73;28.63;;;;;;;;;;5074624;28;20420;-78
2023/06/11 07:07:24;;;;;;;29.17;27.27;;;;;;;;;;5077983;28;20441;-78
2023/06/11 07:09:51;;;;;;;30.13;28.23;;;;;;;;;;5078916;28;20842;-78
2023/06/11 07:12:18;;;;;;;29.87;27.60;;;;;;;;;;5078783;28;20870;-78
2023/06/11 07:14:46;;;;;;;28.60;26.80;;;;;;;;;;5078434;28;20742;-78
2023/06/11 07:17:13;;;;;;;29.57;27.77;;;;;;;;;;5077632;28;20880;-78
2023/06/11 07:19:40;;;;;;;31.23;29.10;;;;;;;;;;5077413;28;20470;-78
2023/06/11 07:22:07;;;;;;;29.07;27.20;;;;;;;;;;5077695;28;20956;-79
2023/06/11 07:24:35;;;;;;;29.83;28.03;;;;;;;;;;5077468;28;20412;-78
2023/06/11 07:27:02;;;;;;;29.73;27.93;;;;;;;;;;5077290;28;20473;-78
2023/06/11 07:29:29;;;;;;;30.40;28.50;;;;;;;;;;5077379;28;20438;-78
2023/06/11 07:31:57;;;;;;;30.17;28.27;;;;;;;;;;5076826;28;20879;-77
2023/06/11 07:34:24;;;;;;;30.70;28.80;;;;;;;;;;5077376;28;20484;-78
2023/06/11 07:36:51;;;;;;;30.77;28.77;;;;;;;;;;5076880;28;20510;-78
2023/06/11 07:39:18;;;;;;;31.20;29.20;;;;;;;;;;5077038;28;20454;-78
2023/06/11 07:41:45;;;;;;;29.50;27.50;;;;;;;;;;5077123;28;20433;-79
2023/06/11 07:44:12;;;;;;;30.30;28.10;;;;;;;;;;5077589;28;20474;-77
2023/06/11 07:46:39;;;;;;;29.10;27.30;;;;;;;;;;5090521;28;20408;-79
2023/06/11 07:49:08;;;;;;;28.20;26.40;;;;;;;;;;5078770;28;20831;-79
2023/06/11 07:51:35;;;;;;;29.17;27.37;;;;;;;;;;5077062;28;20469;-78
2023/06/11 07:54:04;;;;;;;30.60;28.20;;;;;;;;;;5077264;28;20432;-79
2023/06/11 07:56:32;;;;;;;30.13;28.20;;;;;;;;;;5078483;28;20452;-78
2023/06/11 07:58:59;;;;;;;29.43;27.20;;;;;;;;;;5099964;28;20440;-78
2023/06/11 08:01:26;;;;;;;28.27;26.47;;;;;;;;;;5098776;28;20481;-78
2023/06/11 08:03:53;;;;;;;27.10;25.20;;;;;;;;;;5095332;28;20425;-79
2023/06/11 08:06:22;;;;;;;29.90;27.90;;;;;;;;;;5077806;28;20420;-79
2023/06/11 08:08:50;;;;;;;28.90;27.00;;;;;;;;;;5078027;28;20908;-79
2023/06/11 08:11:17;;;;;;;30.00;28.07;;;;;;;;;;5077778;28;20478;-79
2023/06/11 08:13:44;;;;;;;31.13;29.00;;;;;;;;;;5077250;28;20449;-79
2023/06/11 08:16:11;;;;;;;29.83;27.93;;;;;;;;;;5076859;28;20504;-78
2023/06/11 08:18:38;;;;;;;29.50;27.60;;;;;;;;;;5075320;28;20756;-78
2023/06/11 08:21:05;;;;;;;28.93;26.90;;;;;;;;;;5076831;28;20534;-78
2023/06/11 08:23:35;;;;;;;31.20;29.10;;;;;;;;;;5077232;28;20440;-87
2023/06/11 08:26:02;;;;;;;29.17;27.27;;;;;;;;;;5076703;28;20398;-86
2023/06/11 08:28:30;;;;;;;30.27;28.27;;;;;;;;;;5093991;28;20447;-82
2023/06/11 08:30:57;;;;;;;28.83;26.63;;;;;;;;;;5098365;28;20440;-83
2023/06/11 08:33:24;;;;;;;30.53;28.53;;;;;;;;;;5096850;28;20515;-82
2023/06/11 08:35:54;;;;;;;28.03;26.13;;;;;;;;;;5097174;28;20490;-84
2023/06/11 08:38:21;;;;;;;29.63;27.53;;;;;;;;;;5097285;28;20407;-82
2023/06/11 08:40:50;;;;;;;28.87;27.07;;;;;;;;;;5096438;28;20439;-83
2023/06/11 08:43:17;;;;;;;30.10;28.10;;;;;;;;;;5096877;28;20518;-81
2023/06/11 08:45:45;;;;;;;29.23;27.33;;;;;;;;;;5097015;28;20453;-80
2023/06/11 08:48:12;;;;;;;29.67;27.67;;;;;;;;;;5097610;28;20424;-79
2023/06/11 08:50:40;;;;;;;27.40;25.70;;;;;;;;;;5097188;28;20455;-79
2023/06/11 08:53:07;;;;;;;29.87;27.97;;;;;;;;;;5098566;28;20423;-79
2023/06/11 08:55:34;;;;;;;29.37;27.10;;;;;;;;;;5096143;28;20483;-83
2023/06/11 08:58:03;;;;;;;29.97;27.97;;;;;;;;;;5097431;28;20522;-83
2023/06/11 09:00:30;;;;;;;28.07;26.33;;;;;;;;;;5096267;28;20482;-78
2023/06/11 09:02:57;;;;;;;29.33;27.50;;;;;;;;;;5097004;28;20454;-78
2023/06/11 09:05:24;;;;;;;29.57;27.57;;;;;;;;;;5096454;28;20441;-78
2023/06/11 09:07:51;;;;;;;28.67;26.87;;;;;;;;;;5096078;28;20835;-78
2023/06/11 09:10:19;;;;;;;30.10;27.93;;;;;;;;;;5096643;28;20464;-78
2023/06/11 09:12:46;;;;;;;30.30;28.40;;;;;;;;;;5096679;28;20454;-80
2023/06/11 09:15:15;;;;;;;30.53;28.50;;;;;;;;;;5096372;28;20515;-81
2023/06/11 09:17:43;;;;;;;30.50;28.60;;;;;;;;;;5096061;28;20822;-79
2023/06/11 09:20:11;;;;;;;28.40;26.50;;;;;;;;;;5096291;28;20443;-80
2023/06/11 09:22:39;;;;;;;28.33;26.43;;;;;;;;;;5096832;28;20428;-79
2023/06/11 09:25:07;;;;;;;28.97;26.93;;;;;;;;;;5097163;28;20416;-84
2023/06/11 09:27:34;;;;;;;29.03;27.17;;;;;;;;;;5103412;28;20427;-83
2023/06/11 09:30:12;;;;;;;29.60;27.60;;;;;;;;;;5099178;28;20444;-83
2023/06/11 09:32:41;;;;;;;29.40;27.50;;;;;;;;;;5079090;28;20983;-83
2023/06/11 09:35:09;;;;;;;28.63;26.83;;;;;;;;;;5079600;28;20503;-83
2023/06/11 09:37:42;;;;;;;27.50;25.80;;;;;;;;;;5080435;28;20453;-81
2023/06/11 09:40:10;;;;;;;28.57;26.57;;;;;;;;;;5078900;28;20952;-82
2023/06/11 09:42:37;;;;;;;28.07;26.17;;;;;;;;;;5079630;28;20432;-84
2023/06/11 09:45:07;;;;;;;31.23;29.20;;;;;;;;;;5079837;28;20419;-83
2023/06/11 09:47:35;;;;;;;28.77;26.87;;;;;;;;;;5078538;28;20460;-82
2023/06/11 09:50:04;;;;;;;28.30;26.50;;;;;;;;;;5079436;28;20448;-82
2023/06/11 09:52:32;;;;;;;28.37;26.50;;;;;;;;;;5078393;28;20421;-82
2023/06/11 09:54:59;;;;;;;29.30;27.50;;;;;;;;;;5078106;28;20438;-82
2023/06/11 09:57:29;;;;;;;29.00;27.20;;;;;;;;;;5076692;28;20510;-79
2023/06/11 09:59:56;;;;;;;29.40;27.50;;;;;;;;;;5076921;28;20487;-81
2023/06/11 10:02:23;;;;;;;29.13;27.20;;;;;;;;;;5077338;28;20463;-80
2023/06/11 10:04:50;;;;;;;29.13;27.33;;;;;;;;;;5078438;28;20470;-79
2023/06/11 10:07:20;;;;;;;28.43;26.60;;;;;;;;;;5075886;28;20922;-81
2023/06/11 10:09:49;;;;;;;29.00;27.20;;;;;;;;;;5079557;28;20470;-81
2023/06/11 10:12:16;;;;;;;29.77;27.67;;;;;;;;;;5078813;28;20431;-79
2023/06/11 10:14:50;;;;;;;28.97;27.17;;;;;;;;;;5087674;28;20452;-78
2023/06/11 10:17:17;;;;;;;29.20;27.20;;;;;;;;;;5088001;28;20495;-77
2023/06/11 10:19:48;;;;;;;35.40;32.67;;;;;;;;;;5085721;28;20966;-81
2023/06/11 10:22:15;;;;;;;28.83;26.93;;;;;;;;;;5087159;28;20490;-81
2023/06/11 10:24:44;;;;;;;29.33;27.33;;;;;;;;;;5097941;28;20855;-78
2023/06/11 10:27:12;;;;;;;28.27;26.57;;;;;;;;;;5096978;28;20420;-80
2023/06/11 10:29:40;;;;;;;28.53;26.63;;;;;;;;;;5097923;28;20453;-79
2023/06/11 10:32:16;;;;;;;30.87;28.57;;;;;;;;;;5097640;28;20427;-80
2023/06/11 10:34:43;;;;;;;30.40;28.20;;;;;;;;;;5098082;28;20434;-79
2023/06/11 10:37:11;;;;;;;30.00;28.23;;;;;;;;;;5097193;28;21038;-79
2023/06/11 10:39:50;;;;;;;30.13;27.97;;;;;;;;;;5099472;28;20473;-82
2023/06/11 10:42:24;;;;;;;28.53;26.57;;;;;;;;;;5097238;28;20402;-79
2023/06/11 10:44:52;;;;;;;28.57;26.87;;;;;;;;;;5097997;28;20445;-79
2023/06/11 10:47:19;;;;;;;27.90;26.07;;;;;;;;;;5097314;28;20965;-79
2023/06/11 10:49:46;;;;;;;28.50;26.47;;;;;;;;;;5097889;28;20469;-79
2023/06/11 10:52:13;;;;;;;30.13;28.03;;;;;;;;;;5096925;28;20935;-82
2023/06/11 10:54:41;;;;;;;30.00;28.10;;;;;;;;;;5097175;28;20412;-81
2023/06/11 10:57:10;;;;;;;30.57;27.87;;;;;;;;;;5096719;28;20451;-80
2023/06/11 10:59:39;;;;;;;28.87;26.90;;;;;;;;;;5097251;28;20505;-79
2023/06/11 11:02:06;;;;;;;29.30;27.40;;;;;;;;;;5097951;28;20520;-79
2023/06/11 11:04:33;;;;;;;30.07;27.87;;;;;;;;;;5097908;28;20520;-79
2023/06/11 11:07:07;;;;;;;29.63;27.83;;;;;;;;;;5097878;28;20423;-80
2023/06/11 11:09:35;;;;;;;29.57;27.50;;;;;;;;;;5098418;28;20499;-79
2023/06/11 11:12:02;;;;;;;29.47;27.67;;;;;;;;;;5097697;28;20429;-81
2023/06/11 11:14:30;;;;;;;30.73;28.43;;;;;;;;;;5096193;28;20455;-81
2023/06/11 11:17:00;;;;;;;30.27;28.17;;;;;;;;;;5096111;28;20419;-81
2023/06/11 11:19:30;;;;;;;30.23;28.03;;;;;;;;;;5096739;28;20414;-82
2023/06/11 11:21:57;;;;;;;29.20;27.30;;;;;;;;;;5096705;28;20457;-80
2023/06/11 11:24:24;;;;;;;29.93;27.73;;;;;;;;;;5096457;28;20419;-80
2023/06/11 11:26:51;;;;;;;28.30;26.40;;;;;;;;;;5094642;28;20489;-80
2023/06/11 11:29:18;;;;;;;28.33;26.40;;;;;;;;;;5075771;28;20436;-81
2023/06/11 11:31:46;;;;;;;28.60;26.70;;;;;;;;;;5076412;28;20877;-82
2023/06/11 11:34:14;;;;;;;28.50;26.70;;;;;;;;;;5076162;28;20461;-82
2023/06/11 11:36:46;;;;;;;28.90;27.10;;;;;;;;;;5074309;28;20531;-78
2023/06/11 11:39:14;;;;;;;28.80;26.80;;;;;;;;;;5073865;28;20511;-79
2023/06/11 11:41:45;;;;;;;30.70;28.57;;;;;;;;;;5075414;28;20889;-81
2023/06/11 11:44:13;;;;;;;29.40;27.70;;;;;;;;;;5075812;28;20480;-79
2023/06/11 11:46:40;;;;;;;30.00;28.00;;;;;;;;;;5075112;28;20447;-86
2023/06/11 11:49:08;;;;;;;28.10;26.40;;;;;;;;;;5077884;28;20434;-84
2023/06/11 11:51:39;;;;;;;29.13;27.23;;;;;;;;;;5076313;28;20448;-83
2023/06/11 11:54:06;;;;;;;29.47;27.33;;;;;;;;;;5079133;28;20484;-83
2023/06/11 11:56:35;;;;;;;29.27;27.17;;;;;;;;;;5077747;28;20487;-82
2023/06/11 11:59:02;;;;;;;28.00;26.10;;;;;;;;;;5077754;28;20452;-81
2023/06/11 12:01:36;;;;;;;29.13;27.23;;;;;;;;;;5077054;28;20452;-81
2023/06/11 12:04:04;;;;;;;29.30;27.40;;;;;;;;;;5077431;28;20846;-77
2023/06/11 12:06:31;;;;;;;29.37;27.47;;;;;;;;;;5076696;28;20519;-78
2023/06/11 12:08:59;;;;;;;28.37;26.47;;;;;;;;;;5076917;28;20905;-78
2023/06/11 12:11:27;;;;;;;29.30;27.30;;;;;;;;;;5077287;28;20461;-85
2023/06/11 12:13:54;;;;;;;29.20;27.20;;;;;;;;;;5077046;28;20456;-80
2023/06/11 12:16:23;;;;;;;28.90;26.90;;;;;;;;;;5076683;28;20827;-80
2023/06/11 12:18:50;;;;;;;28.87;27.03;;;;;;;;;;5077258;28;20542;-80
2023/06/11 12:21:17;;;;;;;29.40;27.57;;;;;;;;;;5076171;28;20518;-80
2023/06/11 12:23:44;;;;;;;29.80;27.70;;;;;;;;;;5077432;28;20442;-80
2023/06/11 12:26:12;;;;;;;30.73;28.23;;;;;;;;;;5076813;28;20497;-80
2023/06/11 12:28:39;;;;;;;29.73;27.40;;;;;;;;;;5077639;28;20434;-81
2023/06/11 12:31:07;;;;;;;29.10;27.20;;;;;;;;;;5077239;28;20498;-80
2023/06/11 12:33:34;;;;;;;29.43;27.53;;;;;;;;;;5077302;28;20425;-81
2023/06/11 12:36:01;;;;;;;29.80;27.70;;;;;;;;;;5076291;28;20474;-80
2023/06/11 12:38:29;;;;;;;29.90;27.73;;;;;;;;;;5076675;28;20481;-81
2023/06/11 12:40:56;;;;;;;29.30;27.50;;;;;;;;;;5076969;28;20440;-81
2023/06/11 12:43:24;;;;;;;30.03;27.60;;;;;;;;;;5077984;28;20419;-81
2023/06/11 12:45:51;;;;;;;28.40;26.50;;;;;;;;;;5077370;28;20488;-81
2023/06/11 12:48:18;;;;;;;27.73;25.83;;;;;;;;;;5077997;28;20435;-81
2023/06/11 12:50:45;;;;;;;28.47;26.37;;;;;;;;;;5086691;28;20464;-78
2023/06/11 12:53:12;;;;;;;28.47;26.33;;;;;;;;;;5098669;28;20417;-78
2023/06/11 12:55:39;;;;;;;28.50;26.40;;;;;;;;;;5096013;28;20423;-81
2023/06/11 12:58:06;;;;;;;29.30;27.20;;;;;;;;;;5088467;28;20470;-82
2023/06/11 13:00:35;;;;;;;28.40;26.70;;;;;;;;;;5077750;28;20485;-80
2023/06/11 13:03:02;;;;;;;28.97;26.93;;;;;;;;;;5077025;28;20905;-80
2023/06/11 13:05:29;;;;;;;28.20;26.40;;;;;;;;;;5081747;28;20438;-81
2023/06/11 13:07:57;;;;;;;28.10;26.20;;;;;;;;;;5078260;28;20442;-80
2023/06/11 13:10:25;;;;;;;28.83;27.03;;;;;;;;;;5077603;28;20456;-81
2023/06/11 13:12:53;;;;;;;28.10;26.30;;;;;;;;;;5079789;28;20424;-81
2023/06/11 13:15:20;;;;;;;29.23;27.33;;;;;;;;;;5077712;28;20481;-80
2023/06/11 13:17:49;;;;;;;27.77;25.93;;;;;;;;;;5077561;28;20486;-80
2023/06/11 13:20:16;;;;;;;27.63;25.93;;;;;;;;;;5077515;28;20507;-80
2023/06/11 13:22:43;;;;;;;28.33;26.63;;;;;;;;;;5077602;28;20549;-80
2023/06/11 13:25:10;;;;;;;28.60;26.90;;;;;;;;;;5077310;28;20424;-79
2023/06/11 13:27:37;;;;;;;28.10;26.17;;;;;;;;;;5078162;28;20487;-80
2023/06/11 13:30:08;;;;;;;29.13;26.60;;;;;;;;;;5077921;28;20874;-82
2023/06/11 13:32:36;;;;;;;29.13;27.03;;;;;;;;;;5077264;28;20492;-80
2023/06/11 13:35:04;;;;;;;27.87;26.03;;;;;;;;;;5077444;28;20458;-81
2023/06/11 13:37:31;;;;;;;27.57;25.47;;;;;;;;;;5076445;28;20875;-81
2023/06/11 13:39:58;;;;;;;28.47;26.60;;;;;;;;;;5077127;28;21034;-79
2023/06/11 13:42:25;;;;;;;27.90;26.10;;;;;;;;;;5079183;28;20408;-80
2023/06/11 13:44:52;;;;;;;28.20;26.30;;;;;;;;;;5077286;28;20492;-82
2023/06/11 13:47:19;;;;;;;28.60;26.67;;;;;;;;;;5078790;28;20450;-80
2023/06/11 13:49:46;;;;;;;27.90;26.10;;;;;;;;;;5082790;28;20467;-81
2023/06/11 13:52:15;;;;;;;28.13;26.33;;;;;;;;;;5086378;28;20400;-80
2023/06/11 13:54:42;;;;;;;27.93;26.13;;;;;;;;;;5085620;28;20449;-79
2023/06/11 13:57:10;;;;;;;27.63;25.83;;;;;;;;;;5087160;28;20437;-79
2023/06/11 13:59:38;;;;;;;28.80;26.70;;;;;;;;;;5081144;28;20474;-80
2023/06/11 14:02:05;;;;;;;28.77;26.80;;;;;;;;;;5082732;28;20460;-80
2023/06/11 14:04:32;;;;;;;28.20;26.40;;;;;;;;;;5084727;28;20436;-82
2023/06/11 14:06:59;;;;;;;28.90;27.00;;;;;;;;;;5076634;28;20453;-82
2023/06/11 14:09:28;;;;;;;29.23;27.23;;;;;;;;;;5075512;28;20416;-81
2023/06/11 14:11:55;;;;;;;29.13;27.03;;;;;;;;;;5075792;28;20848;-81
2023/06/11 14:14:22;;;;;;;30.67;28.63;;;;;;;;;;5075725;28;20470;-82
2023/06/11 14:16:49;;;;;;;29.13;27.23;;;;;;;;;;5074221;28;20424;-82
2023/06/11 14:19:16;;;;;;;29.03;27.33;;;;;;;;;;5075024;28;20467;-81